createdAt,value
2022-11-30T00:03:22.716Z,101566.63
2022-11-30T00:08:24.386Z,101561.84
2022-11-30T00:13:26.151Z,101565.19
2022-11-30T00:18:27.783Z,101562.72
2022-11-30T00:23:37.068Z,101571.22
2022-11-30T00:28:39.573Z,101566.16
2022-11-30T00:33:41.779Z,101574.97
2022-11-30T00:38:43.932Z,101570.00
2022-11-30T00:43:46.049Z,101571.97
2022-11-30T00:48:47.659Z,101569.78
2022-11-30T00:53:49.277Z,101575.28
2022-11-30T00:58:51.264Z,101569.41
2022-11-30T01:03:53.036Z,101563.97
2022-11-30T01:08:54.715Z,101564.91
2022-11-30T01:13:58.087Z,101563.28
2022-11-30T01:19:00.420Z,101564.25
2022-11-30T01:24:02.165Z,101561.31
2022-11-30T01:29:03.707Z,101566.91
2022-11-30T01:34:05.296Z,101567.44
2022-11-30T01:39:09.026Z,101572.34
2022-11-30T01:44:19.756Z,101567.56
2022-11-30T01:49:41.779Z,101565.34
2022-11-30T01:54:46.575Z,101564.28
2022-11-30T01:59:52.010Z,101565.34
2022-11-30T02:04:53.887Z,101567.56
2022-11-30T02:09:55.431Z,101564.81
2022-11-30T02:15:02.911Z,101566.59
2022-11-30T02:20:22.581Z,101564.81
2022-11-30T02:26:15.457Z,101568.09
2022-11-30T02:31:23.475Z,101563.13
2022-11-30T02:36:27.291Z,101556.16
2022-11-30T02:41:38.062Z,101547.88
2022-11-30T02:46:53.751Z,101552.53
2022-11-30T02:51:56.331Z,101557.31
2022-11-30T02:56:57.900Z,101565.88
2022-11-30T03:01:59.443Z,101560.38
2022-11-30T03:07:01.060Z,101571.19
2022-11-30T03:12:02.590Z,101568.56
2022-11-30T03:17:04.162Z,101571.50
2022-11-30T03:22:05.683Z,101577.09
2022-11-30T03:27:07.290Z,101578.59
2022-11-30T03:32:08.832Z,101584.50
2022-11-30T03:37:10.358Z,101593.53
2022-11-30T03:42:11.869Z,101584.50
2022-11-30T03:47:13.390Z,101584.19
2022-11-30T03:52:14.886Z,101584.19
2022-11-30T03:57:16.400Z,101581.84
2022-11-30T04:02:18.082Z,101592.28
2022-11-30T04:07:19.783Z,101584.72
2022-11-30T04:12:21.390Z,101584.56
2022-11-30T04:17:22.893Z,101582.41
2022-11-30T04:22:24.403Z,101582.41
2022-11-30T04:27:28.325Z,101571.44
2022-11-30T04:32:29.932Z,101571.00
2022-11-30T04:37:31.439Z,101571.97
2022-11-30T04:42:32.969Z,101574.72
2022-11-30T04:47:34.547Z,101573.47
2022-11-30T04:52:39.003Z,101578.53
2022-11-30T04:57:40.523Z,101581.97
2022-11-30T05:02:44.489Z,101583.50
2022-11-30T05:07:57.093Z,101585.09
2022-11-30T05:12:58.857Z,101588.03
2022-11-30T05:18:01.496Z,101585.63
2022-11-30T05:23:05.131Z,101584.28
2022-11-30T05:28:40.147Z,101583.91
2022-11-30T05:33:41.904Z,101588.56
2022-11-30T05:38:44.496Z,101591.31
2022-11-30T05:43:45.985Z,101589.69
2022-11-30T05:48:47.483Z,101597.19
2022-11-30T05:53:49.009Z,101591.44
2022-11-30T05:58:50.555Z,101598.03
2022-11-30T06:03:52.451Z,101599.00
2022-11-30T06:08:54.164Z,101602.16
2022-11-30T06:13:55.644Z,101596.41
2022-11-30T06:18:57.178Z,101606.78
2022-11-30T06:23:58.721Z,101610.16
2022-11-30T06:29:00.281Z,101609.47
2022-11-30T06:34:01.804Z,101604.81
2022-11-30T06:39:03.912Z,101614.88
2022-11-30T06:44:09.649Z,101612.66
2022-11-30T06:49:11.160Z,101624.06
2022-11-30T06:54:12.680Z,101631.91
2022-11-30T06:59:15.321Z,101631.13
2022-11-30T07:04:17.150Z,101628.53
2022-11-30T07:09:18.693Z,101640.78
2022-11-30T07:14:20.260Z,101644.63
2022-11-30T07:19:21.969Z,101642.28
2022-11-30T07:24:23.511Z,101646.31
2022-11-30T07:29:25.034Z,101646.88
2022-11-30T07:34:26.622Z,101656.50
2022-11-30T07:39:28.200Z,101654.72
2022-11-30T07:44:29.819Z,101663.50
2022-11-30T07:49:31.331Z,101665.41
2022-11-30T07:54:32.852Z,101673.28
2022-11-30T07:59:34.417Z,101672.59
2022-11-30T08:04:36.022Z,101669.94
2022-11-30T08:09:37.562Z,101673.00
2022-11-30T08:15:03.638Z,101669.13
2022-11-30T08:20:00.672Z,101679.72
2022-11-30T08:25:02.216Z,101682.00
2022-11-30T08:30:04.436Z,101688.16
2022-11-30T08:35:06.289Z,101694.91
2022-11-30T08:40:08.174Z,101696.88
2022-11-30T08:45:10.139Z,101701.69
2022-11-30T08:50:11.784Z,101709.78
2022-11-30T08:55:13.368Z,101708.53
2022-11-30T09:00:15.447Z,101713.63
2022-11-30T09:05:17.097Z,101716.63
2022-11-30T09:10:19.270Z,101720.91
2022-11-30T09:15:20.795Z,101718.56
2022-11-30T09:20:22.384Z,101715.59
2022-11-30T09:25:23.931Z,101724.81
2022-11-30T09:30:25.572Z,101720.88
2022-11-30T09:35:27.225Z,101723.31
2022-11-30T09:40:34.043Z,101726.63
2022-11-30T09:45:37.435Z,101734.34
2022-11-30T09:50:42.906Z,101730.31
2022-11-30T09:55:44.751Z,101731.41
2022-11-30T10:00:46.398Z,101728.66
2022-11-30T10:05:51.720Z,101727.25
2022-11-30T10:11:12.262Z,101723.97
2022-11-30T10:16:23.243Z,101726.25
2022-11-30T10:21:35.580Z,101716.91
2022-11-30T10:26:37.439Z,101720.00
2022-11-30T10:31:41.612Z,101722.38
2022-11-30T10:36:48.307Z,101724.81
2022-11-30T10:41:56.661Z,101726.09
2022-11-30T10:47:01.185Z,101721.50
2022-11-30T10:52:07.416Z,101725.47
2022-11-30T10:57:09.653Z,101717.50
2022-11-30T11:02:45.248Z,101711.19
2022-11-30T11:07:51.795Z,101707.78
2022-11-30T11:12:55.024Z,101713.97
2022-11-30T11:18:12.009Z,101716.41
2022-11-30T11:23:27.521Z,101719.75
2022-11-30T11:28:29.497Z,101711.06
2022-11-30T11:33:31.061Z,101725.97
2022-11-30T11:38:47.085Z,101712.06
2022-11-30T11:44:10.326Z,101714.75
2022-11-30T11:49:25.758Z,101716.09
2022-11-30T11:54:53.294Z,101719.97
2022-11-30T12:00:16.800Z,101715.06
2022-11-30T12:05:26.815Z,101716.47
2022-11-30T12:16:07.256Z,101719.03
2022-11-30T12:21:57.053Z,101724.63
2022-11-30T12:27:12.333Z,101722.56
2022-11-30T12:32:27.475Z,101731.66
2022-11-30T12:37:47.637Z,101723.09
2022-11-30T12:42:59.114Z,101725.22
2022-11-30T12:48:06.631Z,101723.97
2022-11-30T12:53:47.308Z,101728.09
2022-11-30T12:59:26.140Z,101726.31
2022-11-30T13:04:30.289Z,101726.88
2022-11-30T13:09:37.509Z,101730.31
2022-11-30T13:14:39.449Z,101717.94
2022-11-30T13:20:03.804Z,101723.56
2022-11-30T13:25:17.262Z,101724.41
2022-11-30T13:30:22.474Z,101716.84
2022-11-30T13:35:30.062Z,101724.13
2022-11-30T13:40:32.133Z,101719.06
2022-11-30T13:45:35.226Z,101717.72
2022-11-30T13:50:39.324Z,101727.63
2022-11-30T13:56:00.956Z,101727.63
2022-11-30T14:01:26.161Z,101732.16
2022-11-30T14:06:39.602Z,101734.75
2022-11-30T14:11:43.093Z,101737.91
2022-11-30T14:16:46.529Z,101745.47
2022-11-30T14:21:48.185Z,101750.44
2022-11-30T14:26:51.555Z,101750.59
2022-11-30T14:32:16.739Z,101748.50
2022-11-30T14:37:26.909Z,101756.50
2022-11-30T14:42:30.426Z,101754.56
2022-11-30T14:47:34.124Z,101764.47
2022-11-30T14:52:47.651Z,101760.75
2022-11-30T14:57:56.186Z,101765.97
2022-11-30T15:02:57.719Z,101758.03
2022-11-30T15:07:59.956Z,101749.91
2022-11-30T15:13:02.579Z,101761.19
2022-11-30T15:18:19.512Z,101757.75
2022-11-30T15:23:21.544Z,101750.75
2022-11-30T15:28:44.181Z,101754.44
2022-11-30T15:33:50.089Z,101766.84
2022-11-30T15:38:51.848Z,101771.34
2022-11-30T15:43:56.708Z,101761.75
2022-11-30T15:49:18.453Z,101769.44
2022-11-30T15:54:50.206Z,101772.72
2022-11-30T16:00:13.669Z,101779.19
2022-11-30T16:05:15.116Z,101779.03
2022-11-30T16:10:21.761Z,101781.66
2022-11-30T16:15:26.520Z,101771.22
2022-11-30T16:20:28.061Z,101777.41
2022-11-30T16:25:29.746Z,101783.31
2022-11-30T16:30:31.334Z,101785.78
2022-11-30T16:35:40.843Z,101793.34
2022-11-30T16:40:42.335Z,101786.63
2022-11-30T16:45:43.964Z,101791.44
2022-11-30T16:50:45.687Z,101797.84
2022-11-30T16:55:47.945Z,101800.91
2022-11-30T17:00:49.597Z,101799.13
2022-11-30T17:05:51.327Z,101799.25
2022-11-30T17:10:54.002Z,101808.75
2022-11-30T17:15:55.560Z,101818.50
2022-11-30T17:20:57.135Z,101816.28
2022-11-30T17:25:58.664Z,101814.63
2022-11-30T17:31:00.264Z,101814.63
2022-11-30T17:36:04.127Z,101823.16
2022-11-30T17:41:07.483Z,101830.16
2022-11-30T17:46:11.361Z,101827.69
2022-11-30T17:51:13.011Z,101828.81
2022-11-30T17:56:16.440Z,101829.34
2022-11-30T18:01:23.648Z,101834.56
2022-11-30T18:06:25.351Z,101845.03
2022-11-30T18:11:26.850Z,101849.28
2022-11-30T18:16:31.340Z,101843.50
2022-11-30T18:21:33.089Z,101846.13
2022-11-30T18:26:34.668Z,101844.63
2022-11-30T18:31:36.222Z,101858.88
2022-11-30T18:36:37.723Z,101852.72
2022-11-30T18:41:39.266Z,101852.03
2022-11-30T18:46:40.926Z,101859.88
2022-11-30T18:51:42.539Z,101864.53
2022-11-30T18:56:44.145Z,101858.06
2022-11-30T19:01:45.880Z,101859.31
2022-11-30T19:06:47.617Z,101867.72
2022-11-30T19:11:49.437Z,101861.50
2022-11-30T19:16:51.341Z,101865.91
2022-11-30T19:21:52.977Z,101860.69
2022-11-30T19:26:54.524Z,101863.59
2022-11-30T19:31:56.114Z,101865.22
2022-11-30T19:36:57.714Z,101869.47
2022-11-30T19:41:59.424Z,101874.16
2022-11-30T19:47:03.029Z,101872.94
2022-11-30T19:52:04.801Z,101879.09
2022-11-30T19:57:06.447Z,101881.88
2022-11-30T20:02:09.899Z,101887.19
2022-11-30T20:07:11.694Z,101877.47
2022-11-30T20:12:13.430Z,101884.34
2022-11-30T20:17:15.606Z,101881.88
2022-11-30T20:22:19.778Z,101880.31
2022-11-30T20:27:21.331Z,101877.31
2022-11-30T20:32:24.235Z,101875.09
2022-11-30T20:37:25.761Z,101872.94
2022-11-30T20:42:27.323Z,101880.75
2022-11-30T20:47:33.394Z,101874.13
2022-11-30T20:52:36.510Z,101879.66
2022-11-30T20:57:37.998Z,101871.66
2022-11-30T21:02:39.582Z,101884.44
2022-11-30T21:07:41.372Z,101890.91
2022-11-30T21:12:43.001Z,101879.09
2022-11-30T21:17:44.540Z,101886.91
2022-11-30T21:22:46.092Z,101894.59
2022-11-30T21:27:51.897Z,101893.25
2022-11-30T21:32:53.447Z,101895.31
2022-11-30T21:37:55.020Z,101898.88
2022-11-30T21:42:56.603Z,101903.41
2022-11-30T21:47:58.490Z,101901.06
2022-11-30T21:52:59.963Z,101906.41
2022-11-30T21:58:01.477Z,101902.03
2022-11-30T22:03:03.337Z,101893.59
2022-11-30T22:08:05.096Z,101896.81
2022-11-30T22:13:06.679Z,101899.97
2022-11-30T22:18:08.196Z,101895.44
2022-11-30T22:23:09.732Z,101900.94
2022-11-30T22:28:11.346Z,101902.59
2022-11-30T22:33:12.880Z,101903.53
2022-11-30T22:38:14.517Z,101898.13
2022-11-30T22:43:16.082Z,101903.19
2022-11-30T22:48:17.569Z,101912.28
2022-11-30T22:53:19.078Z,101908.56
2022-11-30T22:58:20.574Z,101908.72
2022-11-30T23:03:26.806Z,101902.69
2022-11-30T23:08:29.562Z,101911.72
2022-11-30T23:13:31.204Z,101903.75
2022-11-30T23:18:38.857Z,101905.28
2022-11-30T23:23:42.080Z,101893.44
2022-11-30T23:28:45.415Z,101889.06
2022-11-30T23:33:47.299Z,101895.09
2022-11-30T23:38:55.472Z,101890.03
2022-11-30T23:43:57.237Z,101892.63
2022-11-30T23:48:58.963Z,101886.72
2022-11-30T23:54:00.531Z,101891.66
2022-11-30T23:59:02.124Z,101897.44
